Time;durP1;ratioP1;P1;durP2;ratioP2;P2;SDS_P1;SDS_P2;PMS_P1;PMS_P2;Temp;Humidity;BMP_temperature;BMP_pressure;BME280_temperature;BME280_humidity;BME280_pressure;Samples;Min_cycle;Max_cycle;Signal;HPM_P1;HPM_P2
2022/02/07 00:01:15;;;;;;;242.23;139.88;;;103.10;2227.20;;;;;;4930682;29;20102;-80
2022/02/07 00:03:48;;;;;;;156.88;96.25;;;103.20;2227.20;;;;;;4930428;29;20024;-84
2022/02/07 00:06:14;;;;;;;113.22;66.85;;;103.30;2227.20;;;;;;4918713;29;20032;-79
2022/02/07 00:08:41;;;;;;;107.43;65.88;;;128.10;2252.80;;;;;;4934904;29;20035;-83
2022/02/07 00:11:07;;;;;;;85.07;53.97;;;128.30;2252.80;;;;;;4935074;29;20027;-80
2022/02/07 00:13:33;;;;;;;68.20;42.42;;;128.40;2252.80;;;;;;4934641;29;20050;-83
2022/02/07 00:15:59;;;;;;;83.72;48.38;;;128.50;2252.80;;;;;;4935136;29;20030;-83
2022/02/07 00:18:25;;;;;;;107.95;62.33;;;102.80;2227.20;;;;;;4935177;29;20055;-82
2022/02/07 00:20:52;;;;;;;114.53;67.15;;;128.50;2252.80;;;;;;4934803;29;20027;-82
2022/02/07 00:23:19;;;;;;;84.90;51.00;;;128.50;2252.80;;;;;;4935231;29;20032;-82
2022/02/07 00:25:45;;;;;;;93.78;57.00;;;128.70;2252.80;;;;;;4919276;29;20034;-82
2022/02/07 00:28:11;;;;;;;101.20;57.63;;;128.70;2252.80;;;;;;4934753;29;20032;-83
2022/02/07 00:30:37;;;;;;;130.02;64.10;;;128.70;2252.80;;;;;;4935017;29;20028;-82
2022/02/07 00:33:03;;;;;;;102.28;55.33;;;128.80;2252.80;;;;;;4934814;29;20032;-83
2022/02/07 00:35:30;;;;;;;74.95;43.30;;;128.80;2252.80;;;;;;4934813;29;20495;-83
2022/02/07 00:37:58;;;;;;;107.25;67.18;;;153.60;2252.80;;;;;;4934599;29;20062;-82
2022/02/07 00:43:01;;;;;;;117.90;72.13;;;128.80;2252.80;;;;;;4935872;29;20027;-80
2022/02/07 00:48:00;;;;;;;78.05;45.90;;;128.70;2252.80;;;;;;4939828;29;20036;-82
2022/02/07 00:50:31;;;;;;;88.45;52.60;;;153.70;2252.80;;;;;;4938122;29;20087;-82
2022/02/07 00:52:57;;;;;;;34.00;20.83;;;128.90;2252.80;;;;;;4938124;29;20071;-82
2022/02/07 00:55:23;;;;;;;37.58;21.05;;;154.30;2252.80;;;;;;4922149;29;20063;-82
2022/02/07 00:57:49;;;;;;;21.73;11.00;;;154.40;2252.80;;;;;;4938331;29;20028;-80
2022/02/07 01:00:16;;;;;;;19.73;10.82;;;179.50;2252.80;;;;;;4938157;29;20040;-83
2022/02/07 01:02:43;;;;;;;12.73;5.63;;;180.00;2252.80;;;;;;4937872;29;20127;-81
2022/02/07 01:05:10;;;;;;;16.17;8.82;;;205.30;2252.80;;;;;;4922127;29;20050;-81
2022/02/07 01:07:36;;;;;;;15.70;4.88;;;205.70;2252.80;;;;;;4937950;29;20119;-81
2022/02/07 01:10:04;;;;;;;9.98;5.57;;;230.90;2252.80;;;;;;4921711;29;20448;-81
2022/02/07 01:15:16;;;;;;;9.90;4.63;;;230.90;2252.80;;;;;;4938823;29;20078;-81
2022/02/07 01:53:34;;;;;;;8.90;4.40;;;256.00;2252.80;;;;;;4938017;29;20495;-80
2022/02/07 01:56:04;;;;;;;15.90;8.52;;;231.30;2252.80;;;;;;4937061;29;20357;-80
2022/02/07 01:58:30;;;;;;;14.82;10.05;;;231.30;2252.80;;;;;;4936497;29;20436;-82
2022/02/07 02:00:56;;;;;;;12.88;7.50;;;256.00;2252.80;;;;;;4938419;29;20059;-80
2022/02/07 02:03:22;;;;;;;14.32;8.20;;;256.00;2252.80;;;;;;4921062;29;20063;-81
2022/02/07 02:05:49;;;;;;;12.23;5.75;;;256.00;2252.80;;;;;;4920724;29;20126;-81
2022/02/07 02:08:16;;;;;;;16.15;8.57;;;256.10;2252.80;;;;;;4936749;29;20046;-81
2022/02/07 02:10:48;;;;;;;14.55;7.82;;;256.10;2252.80;;;;;;4920944;29;20118;-81
2022/02/07 02:13:19;;;;;;;15.75;9.10;;;256.10;2252.80;;;;;;4920797;29;20023;-80
2022/02/07 02:16:00;;;;;;;12.82;6.90;;;256.10;2252.80;;;;;;4936894;29;20035;-81
2022/02/07 02:35:20;;;;;;;15.30;7.82;;;231.30;2252.80;;;;;;4937273;29;20026;-82
2022/02/07 02:38:04;;;;;;;20.25;11.55;;;256.00;2252.80;;;;;;4937006;29;20059;-82
2022/02/07 02:45:44;;;;;;;14.10;7.07;;;256.10;2252.80;;;;;;4937558;29;20046;-81
2022/02/07 02:48:24;;;;;;;15.43;9.05;;;256.10;2252.80;;;;;;4937473;29;20059;-81
2022/02/07 02:50:53;;;;;;;13.93;7.55;;;256.10;2252.80;;;;;;4936018;29;20094;-80
2022/02/07 02:53:19;;;;;;;10.27;5.00;;;256.00;2252.80;;;;;;4936104;29;20460;-80
2022/02/07 02:55:48;;;;;;;12.02;7.43;;;256.00;2252.80;;;;;;4919959;29;20032;-81
2022/02/07 02:58:18;;;;;;;12.48;5.45;;;256.00;2252.80;;;;;;4936125;29;20107;-81
2022/02/07 03:00:48;;;;;;;9.50;4.70;;;256.00;2252.80;;;;;;4935822;29;20037;-81
2022/02/07 03:03:14;;;;;;;8.85;5.90;;;256.10;2252.80;;;;;;4935694;29;20404;-82
2022/02/07 03:05:43;;;;;;;11.15;7.10;;;256.00;2252.80;;;;;;4935798;29;20035;-82
2022/02/07 03:08:11;;;;;;;11.70;6.70;;;256.00;2252.80;;;;;;4935330;29;20079;-81
2022/02/07 03:10:46;;;;;;;17.25;12.38;;;256.00;2252.80;;;;;;4935496;29;20039;-81
2022/02/07 03:18:31;;;;;;;21.00;12.82;;;231.00;2252.80;;;;;;4937033;29;20031;-81
2022/02/07 03:20:58;;;;;;;27.35;18.77;;;230.90;2252.80;;;;;;4935516;29;20039;-82
2022/02/07 03:23:26;;;;;;;27.98;16.45;;;230.80;2252.80;;;;;;4953597;28;20063;-81
2022/02/07 03:25:53;;;;;;;24.27;15.55;;;230.70;2252.80;;;;;;4944611;28;20042;-80
2022/02/07 03:28:21;;;;;;;20.42;16.52;;;230.80;2252.80;;;;;;4960220;28;20097;-80
2022/02/07 03:30:47;;;;;;;23.33;19.17;;;230.80;2252.80;;;;;;4957249;29;20067;-82
2022/02/07 03:33:13;;;;;;;28.63;19.35;;;230.90;2252.80;;;;;;4936872;29;20023;-80
2022/02/07 03:35:39;;;;;;;37.90;26.05;;;230.80;2252.80;;;;;;4936901;29;20028;-80
2022/02/07 03:38:07;;;;;;;36.58;25.45;;;256.30;2252.80;;;;;;4936948;29;20047;-80
2022/02/07 03:40:33;;;;;;;35.45;26.35;;;230.70;2252.80;;;;;;4937074;29;20036;-81
2022/02/07 03:42:59;;;;;;;38.17;26.83;;;230.50;2252.80;;;;;;4937399;29;20074;-81
2022/02/07 03:45:25;;;;;;;26.00;18.20;;;230.50;2252.80;;;;;;4935765;29;20055;-81
2022/02/07 03:47:51;;;;;;;21.52;13.07;;;230.40;2252.80;;;;;;4935389;29;20034;-81
2022/02/07 03:50:17;;;;;;;18.40;13.25;;;230.40;2252.80;;;;;;4935047;29;20032;-82
2022/02/07 03:52:43;;;;;;;25.60;16.48;;;205.70;2252.80;;;;;;4935281;29;20218;-81
2022/02/07 03:55:09;;;;;;;17.63;10.93;;;205.60;2252.80;;;;;;4935362;29;20115;-81
2022/02/07 03:57:35;;;;;;;15.55;10.30;;;205.70;2252.80;;;;;;4934791;29;20051;-81
2022/02/07 04:00:04;;;;;;;19.15;11.75;;;205.50;2252.80;;;;;;4935368;29;20082;-80
2022/02/07 04:02:33;;;;;;;32.05;19.08;;;205.40;2252.80;;;;;;4935169;29;20038;-80
2022/02/07 04:05:20;;;;;;;68.82;36.55;;;205.40;2252.80;;;;;;4934869;29;20024;-81
2022/02/07 04:07:44;;;;;;;44.13;23.42;;;205.30;2252.80;;;;;;4936013;29;20464;-81
2022/02/07 04:10:10;;;;;;;33.15;18.88;;;205.20;2252.80;;;;;;4935088;29;20034;-81
2022/02/07 04:12:39;;;;;;;20.20;12.35;;;205.20;2252.80;;;;;;4934953;29;20035;-82
2022/02/07 04:15:08;;;;;;;19.67;10.75;;;205.40;2252.80;;;;;;4935030;29;20039;-80
2022/02/07 04:17:35;;;;;;;16.20;9.32;;;205.50;2252.80;;;;;;4935052;29;20130;-81
2022/02/07 04:20:02;;;;;;;18.92;10.75;;;205.70;2252.80;;;;;;4919753;29;20163;-81
2022/02/07 04:22:30;;;;;;;28.33;14.25;;;205.20;2252.80;;;;;;4938916;29;20062;-82
2022/02/07 04:24:55;;;;;;;27.20;16.25;;;230.40;2252.80;;;;;;4938854;29;20032;-81
2022/02/07 04:27:21;;;;;;;27.05;16.42;;;205.70;2252.80;;;;;;4938409;29;20406;-80
2022/02/07 04:29:47;;;;;;;28.27;17.85;;;205.70;2252.80;;;;;;4938646;29;20032;-81
2022/02/07 04:32:13;;;;;;;38.42;23.38;;;205.60;2252.80;;;;;;4938329;29;20457;-81
2022/02/07 04:34:39;;;;;;;38.35;23.60;;;205.50;2252.80;;;;;;4938572;29;20027;-80
2022/02/07 04:37:06;;;;;;;29.30;16.95;;;205.50;2252.80;;;;;;4938625;29;20031;-81
2022/02/07 04:39:32;;;;;;;29.85;19.25;;;205.30;2252.80;;;;;;4938118;29;20051;-81
2022/02/07 04:41:59;;;;;;;27.35;16.85;;;205.30;2252.80;;;;;;4938446;29;20384;-82
2022/02/07 04:44:34;;;;;;;27.55;15.93;;;205.20;2252.80;;;;;;4938373;29;20036;-81
2022/02/07 04:47:38;;;;;;;24.42;15.98;;;205.20;2252.80;;;;;;4938177;29;20039;-82
2022/02/07 04:55:16;;;;;;;16.63;9.25;;;205.70;2252.80;;;;;;4939318;29;20126;-82
2022/02/07 04:57:48;;;;;;;16.45;9.15;;;230.50;2252.80;;;;;;4938453;29;20032;-82
2022/02/07 05:03:01;;;;;;;18.17;11.23;;;205.60;2252.80;;;;;;4939380;29;19911;-81
2022/02/07 05:13:43;;;;;;;20.15;10.63;;;230.60;2252.80;;;;;;4938073;29;20028;-82
2022/02/07 05:13:50;;;;;;;35.03;19.92;;;205.70;2252.80;;;;;;4939178;29;20511;-81
2022/02/07 05:16:29;;;;;;;31.02;18.40;;;205.50;2252.80;;;;;;4937407;29;20495;-82
2022/02/07 05:18:57;;;;;;;29.95;17.50;;;205.70;2252.80;;;;;;4937788;29;20042;-81
2022/02/07 05:21:24;;;;;;;21.08;12.32;;;205.60;2252.80;;;;;;4937650;29;20031;-83
2022/02/07 05:23:51;;;;;;;22.58;14.10;;;230.50;2252.80;;;;;;4937739;29;20106;-81
2022/02/07 05:26:17;;;;;;;17.73;10.98;;;230.60;2252.80;;;;;;4937638;29;20032;-81
2022/02/07 05:28:43;;;;;;;16.65;8.27;;;230.60;2252.80;;;;;;4937223;29;20480;-81
2022/02/07 05:31:10;;;;;;;24.80;14.25;;;230.80;2252.80;;;;;;4937564;29;20032;-81
2022/02/07 05:33:37;;;;;;;51.13;33.10;;;230.70;2252.80;;;;;;4936964;29;20388;-81
2022/02/07 05:36:03;;;;;;;29.65;19.67;;;230.70;2252.80;;;;;;4937195;29;20051;-82
2022/02/07 05:38:30;;;;;;;29.42;17.25;;;230.60;2252.80;;;;;;4937237;29;20142;-81
2022/02/07 05:41:00;;;;;;;17.48;10.38;;;230.70;2252.80;;;;;;4937459;29;20067;-81
2022/02/07 05:43:26;;;;;;;27.80;16.90;;;230.70;2252.80;;;;;;4937128;29;20028;-81
2022/02/07 05:45:51;;;;;;;38.40;24.48;;;230.70;2252.80;;;;;;4938553;29;20091;-81
2022/02/07 05:48:17;;;;;;;64.40;42.10;;;230.70;2252.80;;;;;;4937240;29;20023;-80
2022/02/07 05:50:43;;;;;;;88.55;60.28;;;230.60;2252.80;;;;;;4936888;29;20059;-81
2022/02/07 05:53:09;;;;;;;137.18;94.00;;;230.50;2252.80;;;;;;4937104;29;20028;-79
2022/02/07 05:55:35;;;;;;;117.97;81.68;;;230.50;2252.80;;;;;;4937054;29;20031;-81
2022/02/07 05:58:01;;;;;;;98.47;66.13;;;230.40;2252.80;;;;;;4936755;29;20388;-80
2022/02/07 06:00:33;;;;;;;92.78;61.00;;;205.70;2252.80;;;;;;4937032;29;20035;-81
2022/02/07 06:03:03;;;;;;;116.57;80.18;;;205.70;2252.80;;;;;;4937019;29;20404;-80
2022/02/07 06:05:29;;;;;;;122.70;80.53;;;205.70;2252.80;;;;;;4936660;29;20028;-81
2022/02/07 06:07:55;;;;;;;115.22;70.25;;;205.60;2252.80;;;;;;4936855;29;20032;-81
2022/02/07 06:10:21;;;;;;;143.57;87.32;;;205.70;2252.80;;;;;;4936468;29;20030;-80
2022/02/07 06:12:48;;;;;;;108.82;68.05;;;230.50;2252.80;;;;;;4936728;29;20472;-81
2022/02/07 06:15:14;;;;;;;150.60;96.43;;;205.60;2252.80;;;;;;4936805;29;20079;-80
2022/02/07 06:17:41;;;;;;;168.23;100.57;;;205.60;2252.80;;;;;;4936352;29;20028;-81
2022/02/07 06:20:08;;;;;;;117.53;74.40;;;205.60;2252.80;;;;;;4936708;29;20079;-82
2022/02/07 06:22:34;;;;;;;111.78;71.28;;;205.60;2252.80;;;;;;4936536;29;20083;-82
2022/02/07 06:25:02;;;;;;;93.38;59.10;;;205.50;2252.80;;;;;;4936287;29;20023;-80
2022/02/07 06:27:28;;;;;;;59.22;38.63;;;205.50;2252.80;;;;;;4936502;29;20079;-80
2022/02/07 06:29:53;;;;;;;44.80;30.52;;;205.50;2252.80;;;;;;4936515;29;20027;-80
2022/02/07 06:32:19;;;;;;;63.33;42.13;;;205.50;2252.80;;;;;;4936005;29;20385;-80
2022/02/07 06:34:45;;;;;;;72.13;46.47;;;205.50;2252.80;;;;;;4936733;29;20039;-81
2022/02/07 06:37:11;;;;;;;90.35;53.30;;;205.50;2252.80;;;;;;4936413;29;20032;-80
2022/02/07 06:39:37;;;;;;;50.65;28.92;;;205.50;2252.80;;;;;;4936144;29;20100;-79
2022/02/07 06:42:03;;;;;;;50.83;31.88;;;205.50;2252.80;;;;;;4937788;29;20040;-80
2022/02/07 06:44:29;;;;;;;46.55;26.98;;;205.10;2252.80;;;;;;4935280;29;20504;-80
2022/02/07 06:46:55;;;;;;;53.70;30.35;;;205.40;2252.80;;;;;;4935902;29;20172;-80
2022/02/07 06:49:21;;;;;;;82.63;59.83;;;205.40;2252.80;;;;;;4936317;29;20067;-81
2022/02/07 06:51:47;;;;;;;80.43;60.42;;;230.40;2252.80;;;;;;4935727;29;20114;-81
2022/02/07 06:54:13;;;;;;;61.72;44.42;;;205.40;2252.80;;;;;;4935760;29;20195;-81
2022/02/07 06:56:40;;;;;;;76.78;45.78;;;205.30;2252.80;;;;;;4936045;29;20035;-80
2022/02/07 06:59:06;;;;;;;111.47;66.45;;;205.30;2252.80;;;;;;4935717;29;20039;-81
2022/02/07 07:01:33;;;;;;;94.78;59.72;;;205.30;2252.80;;;;;;4935916;29;20028;-82
2022/02/07 07:03:59;;;;;;;127.53;73.35;;;205.30;2252.80;;;;;;4935707;29;20028;-80
2022/02/07 07:06:24;;;;;;;94.88;55.60;;;205.30;2252.80;;;;;;4935353;29;20043;-82
2022/02/07 07:08:54;;;;;;;122.47;74.13;;;205.20;2252.80;;;;;;4935620;29;20036;-80
2022/02/07 07:11:26;;;;;;;134.32;69.15;;;205.20;2252.80;;;;;;4935694;29;20039;-82
2022/02/07 07:14:00;;;;;;;126.97;62.47;;;205.20;2252.80;;;;;;4935654;29;20036;-80
2022/02/07 07:16:39;;;;;;;115.20;60.95;;;205.20;2252.80;;;;;;4935661;29;20114;-81
2022/02/07 07:19:06;;;;;;;54.75;32.13;;;205.20;2252.80;;;;;;4935826;29;20468;-80
2022/02/07 07:21:32;;;;;;;99.05;56.03;;;205.20;2252.80;;;;;;4935483;29;20509;-82
2022/02/07 07:23:58;;;;;;;99.53;59.90;;;205.70;2252.80;;;;;;4935630;29;20032;-80
2022/02/07 07:26:26;;;;;;;185.35;99.03;;;205.20;2252.80;;;;;;4935591;29;20050;-79
2022/02/07 07:28:56;;;;;;;179.38;93.80;;;205.20;2252.80;;;;;;4953219;28;20016;-77
2022/02/07 07:31:24;;;;;;;141.02;79.35;;;205.30;2252.80;;;;;;4952154;28;20031;-82
2022/02/07 07:33:52;;;;;;;159.63;91.07;;;205.40;2252.80;;;;;;4936313;29;20038;-82
2022/02/07 07:36:18;;;;;;;96.70;55.47;;;205.40;2252.80;;;;;;4936538;29;20047;-80
2022/02/07 07:38:44;;;;;;;28.80;19.73;;;205.40;2252.80;;;;;;4936726;29;20055;-78
2022/02/07 07:41:11;;;;;;;36.63;23.30;;;205.50;2252.80;;;;;;4935179;29;20032;-82
2022/02/07 07:43:39;;;;;;;35.72;21.55;;;205.50;2252.80;;;;;;4935295;29;20483;-80
2022/02/07 07:46:10;;;;;;;50.17;26.25;;;205.50;2252.80;;;;;;4935653;29;20095;-82
2022/02/07 07:48:37;;;;;;;89.00;53.63;;;205.50;2252.80;;;;;;4935181;29;20034;-83
2022/02/07 07:51:14;;;;;;;109.03;59.60;;;205.60;2252.80;;;;;;4936488;29;20028;-82
2022/02/07 08:01:59;;;;;;;105.38;67.50;;;205.60;2252.80;;;;;;4942974;29;20042;-78
2022/02/07 08:04:30;;;;;;;131.07;85.00;;;205.70;2252.80;;;;;;4941379;29;20506;-81
2022/02/07 08:07:13;;;;;;;124.28;82.03;;;205.70;2252.80;;;;;;4941509;29;20487;-79
2022/02/07 08:12:06;;;;;;;140.85;86.90;;;205.70;2252.80;;;;;;4942655;29;20531;-81
2022/02/07 08:14:35;;;;;;;120.93;76.82;;;205.70;2252.80;;;;;;4941394;29;20032;-78
2022/02/07 08:17:03;;;;;;;159.25;96.25;;;205.70;2252.80;;;;;;4941171;29;20440;-78
2022/02/07 08:19:30;;;;;;;142.18;89.45;;;205.70;2252.80;;;;;;4941266;29;20032;-81
2022/02/07 08:21:57;;;;;;;73.47;51.35;;;205.70;2252.80;;;;;;4941348;29;20028;-80
2022/02/07 08:24:23;;;;;;;79.63;53.17;;;205.70;2252.80;;;;;;4940961;29;20032;-79
2022/02/07 08:26:53;;;;;;;119.35;81.25;;;205.70;2252.80;;;;;;4941270;29;20086;-81
2022/02/07 08:29:19;;;;;;;118.82;84.15;;;205.70;2252.80;;;;;;4941193;29;20028;-80
2022/02/07 08:31:45;;;;;;;146.23;100.78;;;205.70;2252.80;;;;;;4925241;29;20388;-81
2022/02/07 08:34:11;;;;;;;122.07;84.68;;;205.70;2252.80;;;;;;4941304;29;20032;-81
2022/02/07 08:36:37;;;;;;;89.05;64.38;;;230.40;2252.80;;;;;;4941223;29;20135;-79
2022/02/07 08:39:04;;;;;;;90.00;63.78;;;205.70;2252.80;;;;;;4940620;29;20135;-81
2022/02/07 08:41:30;;;;;;;83.72;61.30;;;230.40;2252.80;;;;;;4941230;29;20032;-78
2022/02/07 08:43:56;;;;;;;74.57;54.15;;;230.40;2252.80;;;;;;4942662;29;20484;-79
2022/02/07 08:46:23;;;;;;;70.63;49.30;;;205.70;2252.80;;;;;;4940860;29;20027;-79
2022/02/07 08:48:54;;;;;;;59.00;42.13;;;230.50;2252.80;;;;;;4941028;29;20027;-77
2022/02/07 08:51:21;;;;;;;54.20;40.95;;;230.50;2252.80;;;;;;4940714;29;20032;-78
2022/02/07 08:53:50;;;;;;;58.67;41.03;;;230.60;2252.80;;;;;;4941000;29;20032;-80
2022/02/07 08:56:19;;;;;;;71.70;49.42;;;230.60;2252.80;;;;;;4941025;29;20083;-80
2022/02/07 08:58:47;;;;;;;82.28;53.58;;;230.60;2252.80;;;;;;4940415;29;20054;-79
2022/02/07 09:01:25;;;;;;;85.65;68.40;;;230.60;2252.80;;;;;;4940866;29;20039;-78
2022/02/07 09:06:33;;;;;;;52.63;39.47;;;230.70;2252.80;;;;;;4938537;29;20118;-79
2022/02/07 09:09:15;;;;;;;71.87;52.33;;;230.70;2252.80;;;;;;4921264;29;20118;-78
2022/02/07 09:11:41;;;;;;;70.88;53.03;;;230.70;2252.80;;;;;;4921099;29;20047;-77
2022/02/07 09:14:12;;;;;;;49.13;38.90;;;230.80;2252.80;;;;;;4920285;29;20110;-78
2022/02/07 09:16:40;;;;;;;46.03;34.67;;;230.80;2252.80;;;;;;4921079;29;20496;-78
2022/02/07 09:19:08;;;;;;;56.28;44.10;;;230.90;2252.80;;;;;;4920646;29;20031;-77
2022/02/07 09:21:35;;;;;;;57.42;42.88;;;230.90;2252.80;;;;;;4937598;29;20036;-78
2022/02/07 09:24:01;;;;;;;75.85;51.95;;;230.90;2252.80;;;;;;4938057;29;20055;-78
2022/02/07 09:26:27;;;;;;;84.03;61.47;;;230.90;2252.80;;;;;;4920566;29;20032;-78
2022/02/07 09:28:53;;;;;;;72.00;53.78;;;231.00;2252.80;;;;;;4920433;29;20086;-77
2022/02/07 09:31:21;;;;;;;60.38;41.90;;;231.00;2252.80;;;;;;4920739;29;20122;-79
2022/02/07 09:33:47;;;;;;;73.93;55.15;;;231.00;2252.80;;;;;;4920461;29;20456;-78
2022/02/07 09:36:15;;;;;;;78.97;52.13;;;231.00;2252.80;;;;;;4920280;29;20059;-78
2022/02/07 09:38:41;;;;;;;63.42;41.58;;;231.00;2252.80;;;;;;4919914;29;20060;-77
2022/02/07 09:41:08;;;;;;;69.50;45.65;;;231.00;2252.80;;;;;;4919589;29;20059;-78
2022/02/07 09:43:41;;;;;;;60.83;40.88;;;231.00;2252.80;;;;;;4937025;29;20039;-78
2022/02/07 09:46:11;;;;;;;54.00;36.65;;;231.00;2252.80;;;;;;4924591;29;20055;-78
2022/02/07 09:48:40;;;;;;;68.18;46.55;;;231.00;2252.80;;;;;;4932814;29;20058;-78
2022/02/07 09:51:07;;;;;;;56.83;37.50;;;231.00;2252.80;;;;;;4938278;29;20126;-78
2022/02/07 09:53:34;;;;;;;48.17;34.00;;;231.00;2252.80;;;;;;4920745;29;20126;-78
2022/02/07 09:56:01;;;;;;;65.55;43.63;;;231.00;2252.80;;;;;;4921008;29;20606;-77
2022/02/07 09:58:27;;;;;;;63.28;38.45;;;231.00;2252.80;;;;;;4921290;29;20023;-77
2022/02/07 10:00:59;;;;;;;78.40;48.85;;;231.10;2252.80;;;;;;4921131;29;20055;-77
2022/02/07 10:03:32;;;;;;;79.30;48.17;;;231.10;2252.80;;;;;;4920879;29;20038;-79
2022/02/07 10:06:05;;;;;;;60.38;39.35;;;231.10;2252.80;;;;;;4921129;29;20039;-78
2022/02/07 10:08:59;;;;;;;38.70;25.55;;;231.20;2252.80;;;;;;4920650;29;20032;-77
2022/02/07 10:38:08;;;;;;;24.73;16.15;;;281.60;2278.40;;;;;;4936943;29;20020;-78
2022/02/07 10:40:40;;;;;;;26.88;17.58;;;281.90;2278.40;;;;;;4920380;29;20035;-79
2022/02/07 10:43:45;;;;;;;25.60;16.58;;;282.00;2278.40;;;;;;4937569;29;20031;-78
2022/02/07 10:46:12;;;;;;;16.75;10.30;;;282.20;2278.40;;;;;;4936520;29;20397;-79
2022/02/07 10:48:41;;;;;;;36.63;23.63;;;282.30;2278.40;;;;;;4936170;29;20491;-79
2022/02/07 10:51:18;;;;;;;27.35;17.02;;;282.20;2278.40;;;;;;4919874;29;20066;-80
2022/02/07 10:53:45;;;;;;;21.98;11.43;;;282.30;2278.40;;;;;;4937178;29;20059;-80
2022/02/07 10:56:13;;;;;;;31.80;21.98;;;282.30;2278.40;;;;;;4920173;29;20134;-78
2022/02/07 10:58:40;;;;;;;24.77;15.82;;;282.30;2278.40;;;;;;4937007;29;20026;-80
2022/02/07 11:03:57;;;;;;;23.52;13.55;;;282.30;2278.40;;;;;;4937136;29;20039;-80
2022/02/07 11:06:30;;;;;;;21.90;13.48;;;282.40;2278.40;;;;;;4919868;29;20419;-79
2022/02/07 11:21:39;;;;;;;15.32;10.70;;;307.30;2304.00;;;;;;4935693;29;20043;-78
2022/02/07 11:24:30;;;;;;;15.05;9.35;;;307.30;2304.00;;;;;;4918939;29;20039;-75
2022/02/07 11:27:39;;;;;;;13.98;8.50;;;307.30;2304.00;;;;;;4918598;29;20070;-74
2022/02/07 11:30:15;;;;;;;18.85;12.25;;;307.30;2304.00;;;;;;4917032;29;20070;-76
2022/02/07 11:32:46;;;;;;;15.75;10.20;;;307.30;2304.00;;;;;;4935566;29;20488;-76
2022/02/07 11:35:23;;;;;;;15.43;9.63;;;307.30;2304.00;;;;;;4935294;29;20054;-76
2022/02/07 11:38:01;;;;;;;18.10;11.30;;;307.30;2304.00;;;;;;4918518;29;20433;-77
2022/02/07 11:40:33;;;;;;;46.10;30.63;;;307.30;2304.00;;;;;;4918349;29;20118;-76
2022/02/07 11:43:10;;;;;;;37.97;26.58;;;282.40;2278.40;;;;;;4918245;29;20035;-77
2022/02/07 11:45:57;;;;;;;28.77;20.92;;;307.30;2304.00;;;;;;4918630;29;20383;-78
2022/02/07 11:48:25;;;;;;;65.32;35.45;;;307.30;2304.00;;;;;;4918543;29;20115;-78
2022/02/07 11:50:58;;;;;;;61.75;37.80;;;307.20;2304.00;;;;;;4918200;29;20087;-78
2022/02/07 11:53:45;;;;;;;48.45;33.85;;;307.20;2304.00;;;;;;4918281;29;20099;-77
2022/02/07 11:56:19;;;;;;;26.50;16.55;;;307.20;2304.00;;;;;;4918244;29;20062;-77
2022/02/07 11:59:14;;;;;;;28.85;17.90;;;307.20;2304.00;;;;;;4917971;29;20059;-77
2022/02/07 12:02:07;;;;;;;24.05;19.02;;;307.20;2304.00;;;;;;4917744;29;20110;-77
2022/02/07 12:04:44;;;;;;;55.00;38.50;;;307.20;2304.00;;;;;;4917551;29;20062;-76
2022/02/07 12:07:26;;;;;;;50.78;35.15;;;307.20;2304.00;;;;;;4917928;29;20024;-77
2022/02/07 12:10:43;;;;;;;31.05;22.75;;;307.20;2304.00;;;;;;4918210;29;20107;-76
2022/02/07 12:12:49;;;;;;;33.53;23.92;;;282.50;2278.40;;;;;;4917621;29;20074;-75
2022/02/07 12:15:27;;;;;;;35.72;21.17;;;307.20;2304.00;;;;;;4930735;29;20375;-75
2022/02/07 12:18:16;;;;;;;64.57;36.20;;;307.30;2304.00;;;;;;4952179;29;20027;-74
2022/02/07 12:20:45;;;;;;;42.88;26.17;;;307.20;2304.00;;;;;;4955161;29;20111;-76
2022/02/07 12:23:17;;;;;;;28.90;17.67;;;307.20;2304.00;;;;;;4954789;29;20039;-77
2022/02/07 12:26:00;;;;;;;32.58;20.92;;;307.30;2304.00;;;;;;4938104;29;20031;-76
2022/02/07 12:28:35;;;;;;;30.05;18.73;;;307.30;2304.00;;;;;;4937746;29;20122;-75
2022/02/07 12:33:32;;;;;;;25.10;16.70;;;307.30;2304.00;;;;;;4955229;29;20038;-75
2022/02/07 12:36:00;;;;;;;31.40;18.35;;;307.30;2304.00;;;;;;4937719;29;20035;-77
2022/02/07 12:38:35;;;;;;;18.40;12.13;;;307.30;2304.00;;;;;;4937690;29;20375;-76
2022/02/07 12:41:04;;;;;;;35.83;24.83;;;307.30;2304.00;;;;;;4937812;29;20059;-75
2022/02/07 12:43:33;;;;;;;46.00;26.67;;;307.30;2304.00;;;;;;4940603;29;20027;-74
2022/02/07 12:46:00;;;;;;;62.55;38.67;;;307.30;2304.00;;;;;;4958747;29;20028;-76
2022/02/07 12:48:33;;;;;;;58.88;35.35;;;307.30;2304.00;;;;;;4941661;29;20063;-75
2022/02/07 12:51:00;;;;;;;49.47;29.45;;;307.20;2304.00;;;;;;4941274;29;20031;-75
2022/02/07 12:53:27;;;;;;;55.95;34.90;;;307.20;2304.00;;;;;;4958662;29;20482;-74
2022/02/07 12:55:55;;;;;;;41.47;28.92;;;307.20;2304.00;;;;;;4941362;29;20058;-80
2022/02/07 12:58:33;;;;;;;46.10;31.88;;;307.20;2304.00;;;;;;4940440;29;20383;-76
2022/02/07 13:01:14;;;;;;;40.97;27.80;;;307.20;2304.00;;;;;;4941059;29;20170;-77
2022/02/07 13:04:06;;;;;;;51.70;29.67;;;307.20;2304.00;;;;;;4940926;29;20114;-78
2022/02/07 13:06:37;;;;;;;45.03;25.48;;;282.50;2278.40;;;;;;4958242;29;20027;-77
2022/02/07 13:09:11;;;;;;;67.05;37.20;;;307.20;2304.00;;;;;;4958486;29;20036;-76
2022/02/07 13:11:44;;;;;;;46.75;27.27;;;307.20;2304.00;;;;;;4940789;29;20548;-74
2022/02/07 13:14:10;;;;;;;58.45;35.08;;;307.20;2304.00;;;;;;4958283;29;20034;-75
2022/02/07 13:16:36;;;;;;;43.70;26.50;;;282.50;2278.40;;;;;;4958109;29;20423;-77
2022/02/07 13:19:14;;;;;;;60.25;32.65;;;282.50;2278.40;;;;;;4958186;29;20110;-76
2022/02/07 13:21:42;;;;;;;27.00;17.00;;;282.40;2278.40;;;;;;4940920;29;20035;-77
2022/02/07 13:24:14;;;;;;;28.75;17.83;;;282.30;2278.40;;;;;;4940634;29;20118;-77
2022/02/07 13:26:50;;;;;;;17.10;7.50;;;281.90;2278.40;;;;;;4941094;29;20082;-79
2022/02/07 13:29:17;;;;;;;12.40;7.68;;;256.20;2252.80;;;;;;4940922;29;20036;-80
2022/02/07 13:31:43;;;;;;;18.55;11.63;;;230.90;2252.80;;;;;;4940470;29;20035;-79
2022/02/07 13:34:24;;;;;;;19.65;12.45;;;230.40;2252.80;;;;;;4957732;29;20039;-79
2022/02/07 13:36:52;;;;;;;29.08;16.65;;;205.50;2252.80;;;;;;4938573;29;20451;-80
2022/02/07 13:39:19;;;;;;;78.18;45.38;;;205.20;2252.80;;;;;;4921180;29;20189;-80
2022/02/07 13:42:06;;;;;;;57.78;32.10;;;205.10;2252.80;;;;;;4920974;29;20062;-79
2022/02/07 13:44:42;;;;;;;51.67;31.58;;;205.00;2252.80;;;;;;4920447;29;20476;-82
2022/02/07 13:47:09;;;;;;;35.55;22.55;;;180.10;2252.80;;;;;;4920172;29;20110;-81
2022/02/07 13:49:58;;;;;;;26.58;18.50;;;179.70;2252.80;;;;;;4938568;29;20027;-81
2022/02/07 13:52:30;;;;;;;19.92;13.00;;;179.40;2252.80;;;;;;4920411;29;20114;-82
2022/02/07 13:55:11;;;;;;;38.67;24.80;;;154.50;2252.80;;;;;;4921070;29;20492;-82
2022/02/07 13:57:57;;;;;;;50.40;32.92;;;154.30;2252.80;;;;;;4920277;29;20038;-81
2022/02/07 14:00:32;;;;;;;29.33;17.15;;;154.20;2252.80;;;;;;4920097;29;20507;-83
2022/02/07 14:03:20;;;;;;;35.42;22.02;;;154.10;2252.80;;;;;;4920808;29;20082;-84
2022/02/07 14:05:52;;;;;;;19.35;12.27;;;153.90;2252.80;;;;;;4921379;29;20388;-83
2022/02/07 14:08:40;;;;;;;19.77;13.60;;;153.80;2252.80;;;;;;4921100;29;20024;-85
2022/02/07 14:11:10;;;;;;;16.88;9.88;;;153.80;2252.80;;;;;;4921177;29;20369;-84
2022/02/07 14:13:38;;;;;;;30.30;17.92;;;128.90;2252.80;;;;;;4921108;29;20127;-83
2022/02/07 14:16:05;;;;;;;35.28;19.50;;;153.60;2252.80;;;;;;4938208;29;20035;-83
2022/02/07 14:18:32;;;;;;;26.63;16.05;;;128.90;2252.80;;;;;;4921172;29;20032;-84
2022/02/07 14:21:08;;;;;;;25.65;15.75;;;128.80;2252.80;;;;;;4920814;29;20043;-84
2022/02/07 14:23:35;;;;;;;22.73;15.75;;;128.80;2252.80;;;;;;4921270;29;20063;-84
2022/02/07 14:26:03;;;;;;;18.98;11.20;;;128.90;2252.80;;;;;;4921161;29;20114;-83
2022/02/07 14:28:30;;;;;;;17.35;10.50;;;128.90;2252.80;;;;;;4937771;29;20416;-83
2022/02/07 14:30:57;;;;;;;21.40;13.20;;;128.80;2252.80;;;;;;4937888;29;20038;-84
2022/02/07 14:33:24;;;;;;;14.13;9.52;;;154.00;2252.80;;;;;;4921037;29;20036;-83
2022/02/07 14:35:50;;;;;;;14.20;9.35;;;128.70;2252.80;;;;;;4920488;29;20476;-85